createdAt,value
2022-11-29T00:02:00.421Z,99525.91
2022-11-29T00:06:08.333Z,99525.91
2022-11-29T00:10:10.232Z,99522.91
2022-11-29T00:14:14.487Z,99527.91
2022-11-29T00:18:16.169Z,99522.41
2022-11-29T00:22:17.716Z,99521.09
2022-11-29T00:26:19.397Z,99523.59
2022-11-29T00:30:21.252Z,99524.19
2022-11-29T00:34:22.897Z,99526.94
2022-11-29T00:38:24.441Z,99517.03
2022-11-29T00:42:26.127Z,99524.44
2022-11-29T00:46:27.732Z,99528.28
2022-11-29T00:50:29.444Z,99522.78
2022-11-29T00:54:31.038Z,99520.03
2022-11-29T00:58:33.446Z,99521.91
2022-11-29T01:02:35.063Z,99525.75
2022-11-29T01:06:36.718Z,99528.50
2022-11-29T01:10:38.426Z,99526.59
2022-11-29T01:14:39.991Z,99530.75
2022-11-29T01:18:42.047Z,99540.94
2022-11-29T01:22:43.608Z,99532.41
2022-11-29T01:26:45.180Z,99536.59
2022-11-29T01:30:46.812Z,99545.19
2022-11-29T01:34:48.435Z,99536.94
2022-11-29T01:38:50.149Z,99543.03
2022-11-29T01:42:51.739Z,99544.69
2022-11-29T01:46:54.943Z,99548.84
2022-11-29T01:51:00.847Z,99548.63
2022-11-29T01:55:05.644Z,99554.13
2022-11-29T01:59:14.575Z,99543.13
2022-11-29T02:03:18.287Z,99548.63
2022-11-29T02:07:19.900Z,99547.94
2022-11-29T02:11:33.606Z,99552.75
2022-11-29T02:15:46.336Z,99550.97
2022-11-29T02:20:06.884Z,99554.22
2022-11-29T02:24:35.023Z,99561.84
2022-11-29T02:28:55.335Z,99554.22
2022-11-29T02:33:34.391Z,99554.81
2022-11-29T02:37:54.285Z,99556.47
2022-11-29T02:41:58.666Z,99557.31
2022-11-29T02:46:21.758Z,99561.97
2022-11-29T02:50:52.366Z,99558.63
2022-11-29T02:55:15.574Z,99561.84
2022-11-29T02:59:40.164Z,99559.72
2022-11-29T03:04:06.844Z,99563.63
2022-11-29T03:08:29.021Z,99564.59
2022-11-29T03:12:43.770Z,99566.78
2022-11-29T03:17:09.301Z,99579.09
2022-11-29T03:21:22.947Z,99584.56
2022-11-29T03:25:31.883Z,99575.75
2022-11-29T03:29:39.218Z,99581.88
2022-11-29T03:33:58.215Z,99593.81
2022-11-29T03:38:11.125Z,99592.72
2022-11-29T03:42:37.177Z,99598.00
2022-11-29T03:47:00.188Z,99600.59
2022-11-29T03:51:14.932Z,99595.09
2022-11-29T03:55:22.255Z,99591.88
2022-11-29T03:59:47.801Z,99596.75
2022-11-29T04:04:26.310Z,99605.59
2022-11-29T04:08:39.880Z,99585.06
2022-11-29T04:13:09.369Z,99581.22
2022-11-29T04:17:31.226Z,99589.13
2022-11-29T04:21:48.119Z,99592.09
2022-11-29T04:26:09.379Z,99604.19
2022-11-29T04:30:22.854Z,99603.09
2022-11-29T04:34:58.895Z,99607.53
2022-11-29T04:39:32.275Z,99611.09
2022-11-29T04:43:33.799Z,99622.09
2022-11-29T04:47:50.240Z,99622.09
2022-11-29T04:52:19.835Z,99622.78
2022-11-29T04:56:45.451Z,99634.53
2022-11-29T05:01:18.575Z,99639.41
2022-11-29T05:05:30.469Z,99646.56
2022-11-29T05:09:47.211Z,99646.34
2022-11-29T05:14:03.939Z,99651.50
2022-11-29T05:18:13.608Z,99661.38
2022-11-29T05:22:48.226Z,99656.25
2022-11-29T05:26:54.481Z,99662.56
2022-11-29T05:31:19.125Z,99663.66
2022-11-29T05:35:36.092Z,99660.28
2022-11-29T05:39:37.685Z,99664.72
2022-11-29T05:44:00.969Z,99669.13
2022-11-29T05:48:07.231Z,99673.81
2022-11-29T05:52:44.019Z,99671.75
2022-11-29T05:57:08.267Z,99670.72
2022-11-29T06:01:24.104Z,99674.28
2022-11-29T06:05:35.523Z,99676.78
2022-11-29T06:10:11.170Z,99686.94
2022-11-29T06:14:28.179Z,99691.59
2022-11-29T06:19:00.449Z,99685.63
2022-11-29T06:23:24.252Z,99703.28
2022-11-29T06:27:25.821Z,99696.47
2022-11-29T06:31:39.998Z,99704.50
2022-11-29T06:35:52.129Z,99704.50
2022-11-29T06:39:54.930Z,99708.28
2022-11-29T06:43:56.953Z,99711.28
2022-11-29T06:48:03.280Z,99714.88
2022-11-29T06:52:28.515Z,99716.78
2022-11-29T06:56:48.904Z,99713.78
2022-11-29T07:01:06.322Z,99716.31
2022-11-29T07:05:18.602Z,99721.53
2022-11-29T07:09:25.423Z,99734.84
2022-11-29T07:13:27.306Z,99733.75
2022-11-29T07:17:30.022Z,99742.00
2022-11-29T07:21:50.228Z,99733.50
2022-11-29T07:25:57.712Z,99738.16
2022-11-29T07:30:05.390Z,99749.75
2022-11-29T07:34:22.216Z,99745.69
2022-11-29T07:38:56.299Z,99757.88
2022-11-29T07:43:22.250Z,99759.91
2022-11-29T07:47:23.905Z,99761.44
2022-11-29T07:51:25.865Z,99770.50
2022-11-29T07:55:27.908Z,99777.22
2022-11-29T07:59:29.623Z,99767.28
2022-11-29T08:03:31.310Z,99775.66
2022-11-29T08:07:36.873Z,99776.97
2022-11-29T08:11:39.629Z,99779.13
2022-11-29T08:15:45.528Z,99789.88
2022-11-29T08:19:47.082Z,99793.09
2022-11-29T08:23:49.632Z,99790.34
2022-11-29T08:27:51.836Z,99799.06
2022-11-29T08:31:54.100Z,99799.19
2022-11-29T08:35:56.559Z,99807.78
2022-11-29T08:39:59.029Z,99811.13
2022-11-29T08:44:00.613Z,99816.25
2022-11-29T08:48:02.238Z,99817.00
2022-11-29T08:52:22.752Z,99830.00
2022-11-29T08:57:16.451Z,99827.53
2022-11-29T09:00:47.488Z,99831.44
2022-11-29T09:04:49.119Z,99831.72
2022-11-29T09:08:50.736Z,99838.66
2022-11-29T09:12:52.356Z,99839.22
2022-11-29T09:16:53.909Z,99833.25
2022-11-29T09:20:55.501Z,99839.56
2022-11-29T09:24:57.440Z,99849.38
2022-11-29T09:29:03.920Z,99850.06
2022-11-29T09:33:05.480Z,99853.19
2022-11-29T09:37:07.099Z,99855.81
2022-11-29T09:41:30.543Z,99859.75
2022-11-29T09:45:38.548Z,99862.41
2022-11-29T09:49:43.164Z,99867.53
2022-11-29T09:54:16.135Z,99874.81
2022-11-29T09:58:21.736Z,99871.09
2022-11-29T10:02:53.032Z,99874.56
2022-11-29T10:06:54.587Z,99877.91
2022-11-29T10:11:13.402Z,99879.31
2022-11-29T10:15:27.907Z,99876.06
2022-11-29T10:19:43.156Z,99879.78
2022-11-29T10:23:53.074Z,99875.84
2022-11-29T10:27:54.691Z,99872.25
2022-11-29T10:31:59.330Z,99875.34
2022-11-29T10:36:05.132Z,99873.06
2022-11-29T10:40:15.084Z,99866.81
2022-11-29T10:44:16.692Z,99866.09
2022-11-29T10:48:21.673Z,99866.69
2022-11-29T10:52:24.032Z,99855.41
2022-11-29T10:56:31.235Z,99866.53
2022-11-29T11:00:43.917Z,99866.03
2022-11-29T11:04:47.715Z,99867.47
2022-11-29T11:08:57.827Z,99869.13
2022-11-29T11:13:04.924Z,99869.41
2022-11-29T11:17:27.020Z,99874.97
2022-11-29T11:21:28.648Z,99865.56
2022-11-29T11:25:35.184Z,99865.56
2022-11-29T11:29:41.345Z,99865.22
2022-11-29T11:33:44.788Z,99867.13
2022-11-29T11:37:56.143Z,99877.56
2022-11-29T11:42:16.369Z,99882.72
2022-11-29T11:46:18.392Z,99885.22
2022-11-29T11:50:37.495Z,99880.91
2022-11-29T11:54:39.143Z,99889.00
2022-11-29T11:58:43.939Z,99892.72
2022-11-29T12:02:45.682Z,99892.81
2022-11-29T12:06:52.319Z,99890.91
2022-11-29T12:11:02.807Z,99890.44
2022-11-29T12:15:16.507Z,99891.69
2022-11-29T12:19:23.580Z,99889.38
2022-11-29T12:24:00.108Z,99889.72
2022-11-29T12:28:01.815Z,99897.72
2022-11-29T12:32:25.294Z,99905.41
2022-11-29T12:36:35.821Z,99906.91
2022-11-29T12:40:43.596Z,99903.28
2022-11-29T12:45:23.706Z,99911.91
2022-11-29T12:49:34.420Z,99902.81
2022-11-29T12:54:04.221Z,99906.41
2022-11-29T12:58:16.616Z,99902.91
2022-11-29T13:02:42.541Z,99903.22
2022-11-29T13:07:02.808Z,99905.50
2022-11-29T13:11:24.303Z,99911.59
2022-11-29T13:16:01.517Z,99912.50
2022-11-29T13:20:18.133Z,99908.91
2022-11-29T13:24:28.775Z,99907.91
2022-11-29T13:28:34.162Z,99917.38
2022-11-29T13:32:57.125Z,99922.38
2022-11-29T13:37:15.403Z,99928.13
2022-11-29T13:41:26.765Z,99920.69
2022-11-29T13:45:37.652Z,99921.19
2022-11-29T13:50:02.242Z,99919.75
2022-11-29T13:54:07.208Z,99916.22
2022-11-29T13:58:17.868Z,99924.75
2022-11-29T14:02:30.753Z,99926.41
2022-11-29T14:06:38.063Z,99929.16
2022-11-29T14:10:39.849Z,99931.94
2022-11-29T14:14:51.576Z,99944.88
2022-11-29T14:19:05.318Z,99940.47
2022-11-29T14:23:07.627Z,99948.13
2022-11-29T14:27:10.084Z,99948.13
2022-11-29T14:31:31.755Z,99955.88
2022-11-29T14:35:43.544Z,99954.47
2022-11-29T14:39:52.957Z,99952.78
2022-11-29T14:44:18.711Z,99966.56
2022-11-29T14:48:28.114Z,99968.00
2022-11-29T14:53:02.520Z,99962.50
2022-11-29T14:57:58.240Z,99970.03
2022-11-29T15:02:12.336Z,99970.88
2022-11-29T15:06:23.301Z,99979.75
2022-11-29T15:10:29.855Z,99977.00
2022-11-29T15:14:42.752Z,99979.13
2022-11-29T15:18:47.321Z,99982.38
2022-11-29T15:22:54.409Z,99983.13
2022-11-29T15:26:57.375Z,99991.53
2022-11-29T15:31:10.147Z,99992.72
2022-11-29T15:35:18.681Z,99999.19
2022-11-29T15:39:46.063Z,99999.41
2022-11-29T15:43:52.558Z,100007.94
2022-11-29T15:47:54.809Z,100007.94
2022-11-29T15:52:05.818Z,100008.78
2022-11-29T15:56:33.057Z,100014.53
2022-11-29T16:00:35.372Z,100020.75
2022-11-29T16:04:43.570Z,100017.38
2022-11-29T16:08:50.081Z,100018.47
2022-11-29T16:13:07.056Z,100023.97
2022-11-29T16:17:27.767Z,100019.78
2022-11-29T16:21:41.885Z,100030.56
2022-11-29T16:26:00.888Z,100027.22
2022-11-29T16:30:20.024Z,100021.84
2022-11-29T16:34:27.217Z,100027.69
2022-11-29T16:38:29.085Z,100028.63
2022-11-29T16:42:33.764Z,100022.66
2022-11-29T16:46:40.420Z,100028.28
2022-11-29T16:50:43.047Z,100034.09
2022-11-29T16:54:44.899Z,100036.13
2022-11-29T16:59:20.978Z,100039.84
2022-11-29T17:03:15.464Z,100038.84
2022-11-29T17:07:27.028Z,100045.66
2022-11-29T17:11:28.757Z,100046.34
2022-11-29T17:15:30.599Z,100034.78
2022-11-29T17:19:32.416Z,100047.91
2022-11-29T17:23:34.814Z,100044.19
2022-11-29T17:27:36.660Z,100055.38
2022-11-29T17:31:38.884Z,100057.09
2022-11-29T17:35:40.451Z,100063.19
2022-11-29T17:39:44.791Z,100061.66
2022-11-29T17:43:46.629Z,100061.78
2022-11-29T17:47:51.632Z,100059.41
2022-11-29T17:51:53.745Z,100060.38
2022-11-29T17:55:55.667Z,100063.25
2022-11-29T17:59:57.495Z,100072.72
2022-11-29T18:04:01.772Z,100073.31
2022-11-29T18:08:05.864Z,100077.28
2022-11-29T18:12:08.008Z,100086.38
2022-11-29T18:16:12.648Z,100091.88
2022-11-29T18:20:15.070Z,100081.94
2022-11-29T18:24:17.300Z,100083.38
2022-11-29T18:28:18.877Z,100085.53
2022-11-29T18:32:20.464Z,100097.84
2022-11-29T18:36:31.123Z,100101.06
2022-11-29T18:40:33.033Z,100101.53
2022-11-29T18:44:34.870Z,100102.59
2022-11-29T18:48:36.971Z,100111.69
2022-11-29T18:52:40.793Z,100111.91
2022-11-29T18:56:43.633Z,100117.28
2022-11-29T19:00:45.331Z,100117.16
2022-11-29T19:04:48.385Z,100117.59
2022-11-29T19:08:52.060Z,100112.56
2022-11-29T19:12:53.675Z,100109.47
2022-11-29T19:16:55.334Z,100114.81
2022-11-29T19:21:11.052Z,100113.81
2022-11-29T19:25:12.683Z,100118.56
2022-11-29T19:29:15.301Z,100126.88
2022-11-29T19:33:16.993Z,100121.72
2022-11-29T19:37:18.710Z,100120.56
2022-11-29T19:41:26.171Z,100123.41
2022-11-29T19:45:27.792Z,100121.69
2022-11-29T19:49:29.425Z,100113.47
2022-11-29T19:53:32.677Z,100117.91
2022-11-29T19:57:34.268Z,100119.56
2022-11-29T20:01:41.776Z,100116.38
2022-11-29T20:05:53.664Z,100117.56
2022-11-29T20:09:55.476Z,100117.38
2022-11-29T20:14:01.802Z,100120.28
2022-11-29T20:18:04.694Z,100128.06
2022-11-29T20:22:06.324Z,100133.91
2022-11-29T20:26:14.342Z,100133.47
2022-11-29T20:30:16.152Z,100145.06
2022-11-29T20:34:19.196Z,100136.38
2022-11-29T20:38:51.991Z,100135.91
2022-11-29T20:43:10.862Z,100145.81
2022-11-29T20:47:21.628Z,100148.34
2022-11-29T20:51:28.831Z,100142.84
2022-11-29T20:55:30.621Z,100153.38
2022-11-29T20:59:32.283Z,100150.38
2022-11-29T21:03:34.334Z,100152.06
2022-11-29T21:07:36.101Z,100152.66
2022-11-29T21:11:37.993Z,100151.00
2022-11-29T21:15:41.377Z,100155.41
2022-11-29T21:19:43.931Z,100158.16
2022-11-29T21:23:56.919Z,100148.47
2022-11-29T21:28:00.470Z,100146.44
2022-11-29T21:32:03.086Z,100145.66
2022-11-29T21:36:06.197Z,100149.78
2022-11-29T21:40:09.564Z,100154.53
2022-11-29T21:44:11.265Z,100157.94
2022-11-29T21:48:31.397Z,100163.06
2022-11-29T21:52:32.955Z,100162.44
2022-11-29T21:56:34.599Z,100152.53
2022-11-29T22:00:37.682Z,100161.84
2022-11-29T22:04:39.498Z,100172.84
2022-11-29T22:08:42.061Z,100170.94
2022-11-29T22:12:51.873Z,100164.59
2022-11-29T22:16:56.976Z,100164.38
2022-11-29T22:21:05.557Z,100166.66
2022-11-29T22:25:07.554Z,100171.09
2022-11-29T22:29:11.437Z,100177.19
2022-11-29T22:33:13.611Z,100179.09
2022-11-29T22:37:15.336Z,100171.47
2022-11-29T22:41:18.574Z,100179.25
2022-11-29T22:45:20.149Z,100176.50
2022-11-29T22:49:21.822Z,100179.63
2022-11-29T22:53:23.378Z,100175.59
2022-11-29T22:57:24.951Z,100172.38
2022-11-29T23:01:29.370Z,100166.66
2022-11-29T23:05:32.993Z,100173.84
2022-11-29T23:09:34.565Z,100168.34
2022-11-29T23:13:38.965Z,100168.09
2022-11-29T23:17:40.717Z,100171.94
2022-11-29T23:21:44.712Z,100175.97
2022-11-29T23:25:49.989Z,100180.38
2022-11-29T23:29:51.732Z,100183.13
2022-11-29T23:33:53.435Z,100198.78
2022-11-29T23:37:55.116Z,100194.75
2022-11-29T23:41:56.811Z,100185.22
2022-11-29T23:45:58.907Z,100183.09
2022-11-29T23:50:00.562Z,100173.53
2022-11-29T23:54:02.172Z,100167.59
2022-11-29T23:58:03.878Z,100171.38
